createdAt,value
2023-01-15T00:01:52.462Z,13.33
2023-01-15T00:04:22.092Z,15.23
2023-01-15T00:06:50.583Z,15.90
2023-01-15T00:09:18.725Z,14.50
2023-01-15T00:11:46.922Z,14.57
2023-01-15T00:14:15.238Z,11.40
2023-01-15T00:16:45.442Z,14.83
2023-01-15T00:19:13.632Z,10.30
2023-01-15T00:21:43.195Z,11.97
2023-01-15T00:24:28.714Z,11.33
2023-01-15T00:27:14.294Z,8.77
2023-01-15T00:29:42.459Z,16.03
2023-01-15T00:32:11.124Z,17.30
2023-01-15T00:34:39.303Z,14.13
2023-01-15T00:37:08.931Z,9.67
2023-01-15T00:39:37.144Z,13.40
2023-01-15T00:42:05.470Z,19.53
2023-01-15T00:44:33.816Z,13.20
2023-01-15T00:47:02.118Z,14.87
2023-01-15T00:49:30.574Z,13.73
2023-01-15T00:51:58.799Z,13.40
2023-01-15T00:54:28.363Z,13.90
2023-01-15T00:56:56.526Z,14.40
2023-01-15T00:59:24.832Z,12.97
2023-01-15T01:01:53.221Z,14.03
2023-01-15T01:04:21.519Z,15.60
2023-01-15T01:06:49.706Z,13.97
2023-01-15T01:09:18.587Z,15.50
2023-01-15T01:11:50.239Z,11.00
2023-01-15T01:14:18.621Z,12.60
2023-01-15T01:16:53.032Z,12.13
2023-01-15T01:19:23.250Z,13.33
2023-01-15T01:21:52.810Z,13.73
2023-01-15T01:24:23.511Z,12.97
2023-01-15T01:26:54.711Z,17.60
2023-01-15T01:29:24.637Z,15.07
2023-01-15T01:31:52.836Z,13.47
2023-01-15T01:34:21.005Z,14.57
2023-01-15T01:36:49.128Z,13.70
2023-01-15T01:39:19.394Z,14.43
2023-01-15T01:41:48.479Z,14.60
2023-01-15T01:44:56.169Z,16.20
2023-01-15T01:47:28.224Z,14.90
2023-01-15T01:50:01.787Z,12.27
2023-01-15T01:52:34.448Z,13.40
2023-01-15T01:55:03.874Z,16.83
2023-01-15T01:57:32.379Z,14.03
2023-01-15T02:00:02.235Z,12.27
2023-01-15T02:02:32.892Z,13.00
2023-01-15T02:05:01.265Z,13.17
2023-01-15T02:07:33.179Z,13.90
2023-01-15T02:10:01.659Z,15.13
2023-01-15T02:12:35.552Z,16.53
2023-01-15T02:15:11.786Z,15.20
2023-01-15T02:17:47.979Z,13.23
2023-01-15T02:20:28.924Z,15.33
2023-01-15T02:23:30.479Z,13.43
2023-01-15T02:26:38.716Z,10.23
2023-01-15T02:29:14.572Z,13.17
2023-01-15T02:31:45.724Z,12.00
2023-01-15T02:34:17.240Z,13.30
2023-01-15T02:36:51.589Z,15.00
2023-01-15T02:39:21.019Z,13.30
2023-01-15T02:41:53.214Z,13.43
2023-01-15T02:44:24.649Z,13.17
2023-01-15T02:46:53.216Z,14.13
2023-01-15T02:49:23.822Z,12.70
2023-01-15T02:51:59.130Z,14.63
2023-01-15T02:54:32.755Z,11.50
2023-01-15T02:57:03.244Z,8.20
2023-01-15T02:59:37.941Z,14.13
2023-01-15T03:02:11.916Z,9.17
2023-01-15T03:04:45.119Z,11.67
2023-01-15T03:07:18.089Z,12.33
2023-01-15T03:09:47.722Z,12.63
2023-01-15T03:12:19.145Z,10.23
2023-01-15T03:14:57.860Z,10.40
2023-01-15T03:17:31.754Z,12.63
2023-01-15T03:20:04.219Z,12.20
2023-01-15T03:22:35.463Z,11.37
2023-01-15T03:25:08.386Z,12.60
2023-01-15T03:27:36.687Z,10.93
2023-01-15T03:30:08.600Z,10.30
2023-01-15T03:32:37.386Z,10.30
2023-01-15T03:35:08.036Z,10.13
2023-01-15T03:37:36.252Z,9.93
2023-01-15T03:40:06.922Z,9.90
2023-01-15T03:42:49.930Z,11.43
2023-01-15T03:45:30.189Z,12.13
2023-01-15T03:48:03.880Z,10.87
2023-01-15T03:50:42.312Z,10.77
2023-01-15T03:53:16.797Z,9.60
2023-01-15T03:55:53.866Z,10.97
2023-01-15T03:58:27.047Z,8.53
2023-01-15T04:00:59.931Z,10.60
2023-01-15T04:03:30.101Z,8.40
2023-01-15T04:06:00.186Z,10.23
2023-01-15T04:08:30.461Z,10.07
2023-01-15T04:10:59.942Z,10.67
2023-01-15T04:13:31.074Z,8.93
2023-01-15T04:16:01.262Z,9.53
2023-01-15T04:18:29.548Z,9.67
2023-01-15T04:20:58.032Z,8.63
2023-01-15T04:23:26.174Z,12.20
2023-01-15T04:25:54.395Z,12.27
2023-01-15T04:28:22.537Z,9.57
2023-01-15T04:30:50.732Z,13.53
2023-01-15T04:33:20.286Z,8.33
2023-01-15T04:35:48.448Z,10.43
2023-01-15T04:38:17.970Z,9.47
2023-01-15T04:41:03.955Z,8.67
2023-01-15T04:43:49.414Z,10.50
2023-01-15T04:46:21.657Z,11.50
2023-01-15T04:48:51.215Z,9.43
2023-01-15T04:51:19.397Z,9.63
2023-01-15T04:53:47.742Z,12.67
2023-01-15T04:56:15.900Z,9.70
2023-01-15T04:58:44.089Z,9.90
2023-01-15T05:01:13.655Z,9.40
2023-01-15T05:03:41.897Z,8.07
2023-01-15T05:06:12.458Z,9.07
2023-01-15T05:08:40.595Z,11.33
2023-01-15T05:11:09.438Z,9.50
2023-01-15T05:13:37.580Z,10.47
2023-01-15T05:16:10.707Z,8.53
2023-01-15T05:18:39.000Z,10.53
2023-01-15T05:21:07.357Z,12.73
2023-01-15T05:23:37.401Z,10.63
2023-01-15T05:26:06.348Z,9.97
2023-01-15T05:28:34.530Z,11.27
2023-01-15T05:31:08.727Z,14.03
2023-01-15T05:33:37.983Z,10.23
2023-01-15T05:36:07.954Z,9.30
2023-01-15T05:38:37.944Z,10.10
2023-01-15T05:41:27.722Z,7.83
2023-01-15T05:43:56.502Z,11.57
2023-01-15T05:46:24.932Z,8.17
2023-01-15T05:48:53.227Z,8.57
2023-01-15T05:51:21.480Z,6.20
2023-01-15T05:53:51.040Z,9.23
2023-01-15T05:56:19.171Z,7.20
2023-01-15T05:58:47.424Z,8.97
2023-01-15T06:01:17.795Z,7.30
2023-01-15T06:03:48.373Z,8.03
2023-01-15T06:06:18.970Z,8.37
2023-01-15T06:08:47.331Z,6.90
2023-01-15T06:11:16.871Z,7.17
2023-01-15T06:13:45.030Z,6.10
2023-01-15T06:16:13.321Z,5.03
2023-01-15T06:18:42.098Z,7.17
2023-01-15T06:21:12.289Z,5.77
2023-01-15T06:23:41.171Z,6.17
2023-01-15T06:26:13.893Z,6.97
2023-01-15T06:28:44.013Z,6.67
2023-01-15T06:31:13.885Z,7.17
2023-01-15T06:33:42.170Z,6.47
2023-01-15T06:36:12.388Z,6.60
2023-01-15T06:38:40.927Z,6.20
2023-01-15T06:41:25.726Z,8.87
2023-01-15T06:44:12.600Z,7.67
2023-01-15T06:47:01.774Z,7.23
2023-01-15T06:49:30.036Z,5.90
2023-01-15T06:51:58.257Z,7.77
2023-01-15T06:54:26.461Z,6.40
2023-01-15T06:56:54.825Z,8.47
2023-01-15T06:59:24.508Z,11.10
2023-01-15T07:01:52.995Z,7.77
2023-01-15T07:04:21.218Z,5.70
2023-01-15T07:06:49.421Z,9.13
2023-01-15T07:09:17.582Z,6.10
2023-01-15T07:11:50.420Z,10.03
2023-01-15T07:14:20.189Z,7.37
2023-01-15T07:16:50.596Z,7.37
2023-01-15T07:19:19.700Z,7.23
2023-01-15T07:21:48.868Z,5.67
2023-01-15T07:24:18.114Z,6.40
2023-01-15T07:26:46.710Z,7.53
2023-01-15T07:29:15.788Z,8.23
2023-01-15T07:31:44.085Z,9.90
2023-01-15T07:34:13.656Z,6.27
2023-01-15T07:36:41.834Z,7.27
2023-01-15T07:39:11.863Z,7.83
2023-01-15T07:41:57.774Z,8.07
2023-01-15T07:44:43.416Z,7.47
2023-01-15T07:47:36.465Z,9.30
2023-01-15T07:50:08.386Z,7.90
2023-01-15T07:52:36.587Z,7.23
2023-01-15T07:55:05.433Z,6.80
2023-01-15T07:57:33.625Z,7.40
2023-01-15T08:00:01.796Z,6.90
2023-01-15T08:02:29.992Z,7.03
2023-01-15T08:04:58.172Z,6.57
2023-01-15T08:07:27.802Z,5.33
2023-01-15T08:09:56.031Z,7.27
2023-01-15T08:12:41.591Z,6.30
2023-01-15T08:15:17.559Z,7.00
2023-01-15T08:17:47.586Z,7.37
2023-01-15T08:20:17.773Z,6.20
2023-01-15T08:22:47.674Z,6.57
2023-01-15T08:25:17.597Z,7.73
2023-01-15T08:27:46.269Z,4.60
2023-01-15T08:30:16.645Z,7.43
2023-01-15T08:32:44.898Z,6.67
2023-01-15T08:35:13.908Z,5.97
2023-01-15T08:37:42.744Z,9.40
2023-01-15T08:40:13.904Z,6.80
2023-01-15T08:42:42.501Z,7.20
2023-01-15T08:45:11.581Z,7.40
2023-01-15T08:47:39.783Z,15.43
2023-01-15T08:50:09.578Z,8.37
2023-01-15T08:52:39.223Z,7.63
2023-01-15T08:55:08.788Z,4.73
2023-01-15T08:57:38.731Z,7.70
2023-01-15T09:00:09.144Z,6.13
2023-01-15T09:02:37.391Z,8.47
2023-01-15T09:05:06.197Z,7.20
2023-01-15T09:07:35.450Z,8.13
2023-01-15T09:10:04.432Z,7.07
2023-01-15T09:12:32.782Z,7.03
2023-01-15T09:15:03.165Z,6.97
2023-01-15T09:17:33.340Z,7.30
2023-01-15T09:20:03.222Z,8.60
2023-01-15T09:22:31.631Z,7.53
2023-01-15T09:25:01.158Z,8.90
2023-01-15T09:27:30.197Z,7.17
2023-01-15T09:29:58.566Z,10.57
2023-01-15T09:32:28.235Z,7.70
2023-01-15T09:34:56.506Z,4.67
2023-01-15T09:37:24.721Z,3.83
2023-01-15T09:39:52.840Z,8.83
2023-01-15T09:42:41.536Z,5.63
2023-01-15T09:45:19.741Z,7.83
2023-01-15T09:48:05.991Z,5.97
2023-01-15T09:50:47.887Z,6.10
2023-01-15T09:53:35.280Z,5.07
2023-01-15T09:56:05.318Z,4.37
2023-01-15T09:58:37.466Z,5.00
2023-01-15T10:01:06.494Z,5.60
2023-01-15T10:03:42.963Z,6.27
2023-01-15T10:06:16.573Z,5.47
2023-01-15T10:08:47.129Z,8.10
2023-01-15T10:11:47.250Z,4.13
2023-01-15T10:14:19.179Z,5.80
2023-01-15T10:16:47.318Z,5.43
2023-01-15T10:19:17.180Z,7.13
2023-01-15T10:21:54.444Z,8.77
2023-01-15T10:24:30.006Z,4.60
2023-01-15T10:26:59.363Z,7.50
2023-01-15T10:29:37.354Z,7.33
2023-01-15T10:32:20.832Z,5.77
2023-01-15T10:35:26.309Z,7.27
2023-01-15T10:38:01.234Z,7.33
2023-01-15T10:40:52.235Z,7.60
2023-01-15T10:43:24.950Z,6.70
2023-01-15T10:45:57.060Z,6.77
2023-01-15T10:48:32.111Z,6.30
2023-01-15T10:51:05.334Z,11.07
2023-01-15T10:53:41.590Z,7.53
2023-01-15T10:56:27.380Z,5.77
2023-01-15T10:59:00.409Z,7.37
2023-01-15T11:01:29.907Z,6.30
2023-01-15T11:03:58.348Z,6.87
2023-01-15T11:06:31.646Z,5.63
2023-01-15T11:09:10.182Z,4.80
2023-01-15T11:12:02.277Z,5.30
2023-01-15T11:14:55.287Z,8.80
2023-01-15T11:17:42.229Z,8.87
2023-01-15T11:20:26.746Z,5.67
2023-01-15T11:22:56.949Z,6.47
2023-01-15T11:25:30.775Z,6.63
2023-01-15T11:28:01.612Z,6.83
2023-01-15T11:30:32.281Z,7.10
2023-01-15T11:33:04.043Z,10.40
2023-01-15T11:35:33.891Z,7.40
2023-01-15T11:38:15.739Z,8.83
2023-01-15T11:40:53.790Z,6.50
2023-01-15T11:43:41.437Z,7.30
2023-01-15T11:46:43.613Z,6.83
2023-01-15T11:49:40.554Z,6.67
2023-01-15T11:52:12.063Z,8.10
2023-01-15T11:54:45.809Z,9.20
2023-01-15T11:57:24.740Z,5.13
2023-01-15T11:59:53.357Z,8.03
2023-01-15T12:02:34.665Z,6.80
2023-01-15T12:05:04.908Z,7.87
2023-01-15T12:07:33.539Z,7.47
2023-01-15T12:10:15.945Z,9.93
2023-01-15T12:12:59.855Z,9.17
2023-01-15T12:15:45.437Z,7.17
2023-01-15T12:18:44.936Z,9.40
2023-01-15T12:21:28.525Z,10.67
2023-01-15T12:24:27.819Z,9.63
2023-01-15T12:27:09.788Z,11.50
2023-01-15T12:29:45.230Z,9.97
2023-01-15T12:32:17.187Z,10.83
2023-01-15T12:34:53.025Z,9.93
2023-01-15T12:37:24.873Z,11.37
2023-01-15T12:40:03.341Z,9.23
2023-01-15T12:42:53.516Z,10.07
2023-01-15T12:45:26.497Z,13.87
2023-01-15T12:48:03.530Z,9.87
2023-01-15T12:50:42.219Z,8.83
2023-01-15T12:53:18.083Z,9.73
2023-01-15T12:55:55.699Z,8.37
2023-01-15T12:58:39.309Z,8.80
2023-01-15T13:01:23.659Z,7.80
2023-01-15T13:04:06.889Z,8.80
2023-01-15T13:06:37.510Z,12.73
2023-01-15T13:09:10.459Z,8.43
2023-01-15T13:11:38.633Z,8.50
2023-01-15T13:14:16.562Z,12.30
2023-01-15T13:16:53.757Z,9.60
2023-01-15T13:19:36.892Z,12.30
2023-01-15T13:22:11.686Z,7.63
2023-01-15T13:25:26.467Z,10.90
2023-01-15T13:28:07.445Z,11.03
2023-01-15T13:30:47.888Z,10.57
2023-01-15T13:33:27.687Z,13.07
2023-01-15T13:36:03.037Z,10.07
2023-01-15T13:38:43.081Z,8.30
2023-01-15T13:41:11.636Z,10.37
2023-01-15T13:43:42.946Z,7.70
2023-01-15T13:46:15.045Z,10.53
2023-01-15T13:48:46.685Z,8.40
2023-01-15T13:51:30.555Z,11.67
2023-01-15T13:54:01.143Z,9.30
2023-01-15T13:56:31.033Z,8.40
2023-01-15T13:59:01.193Z,10.90
2023-01-15T14:01:36.433Z,10.83
2023-01-15T14:04:07.712Z,11.57
2023-01-15T14:06:41.459Z,9.60
2023-01-15T14:09:15.620Z,8.70
2023-01-15T14:11:58.683Z,10.23
2023-01-15T14:15:07.882Z,10.43
2023-01-15T14:18:01.030Z,9.77
2023-01-15T14:20:48.232Z,14.13
2023-01-15T14:23:41.052Z,15.93
2023-01-15T14:26:19.124Z,11.07
2023-01-15T14:29:06.236Z,11.90
2023-01-15T14:31:46.920Z,16.83
2023-01-15T14:34:25.110Z,9.17
2023-01-15T14:37:00.109Z,6.70
2023-01-15T14:39:40.480Z,14.00
2023-01-15T14:42:38.315Z,10.87
2023-01-15T14:45:12.225Z,11.70
2023-01-15T14:47:47.497Z,9.03
2023-01-15T14:50:42.360Z,12.63
2023-01-15T14:53:30.891Z,10.50
2023-01-15T14:56:04.080Z,9.70
2023-01-15T14:58:40.175Z,10.27
2023-01-15T15:01:24.269Z,9.70
2023-01-15T15:03:57.132Z,11.13
2023-01-15T15:06:27.693Z,9.80
2023-01-15T15:09:01.283Z,9.63
2023-01-15T15:11:54.442Z,10.60
2023-01-15T15:14:24.842Z,14.40
2023-01-15T15:16:55.035Z,13.50
2023-01-15T15:19:29.363Z,8.53
2023-01-15T15:22:00.932Z,9.97
2023-01-15T15:24:32.489Z,12.17
2023-01-15T15:27:10.687Z,10.90
2023-01-15T15:29:38.910Z,9.47
2023-01-15T15:32:07.396Z,16.33
2023-01-15T15:34:40.291Z,10.00
2023-01-15T15:37:16.236Z,13.67
2023-01-15T15:39:53.492Z,9.23
2023-01-15T15:42:44.499Z,10.60
2023-01-15T15:45:36.215Z,10.37
2023-01-15T15:48:31.391Z,9.03
2023-01-15T15:50:59.998Z,12.10
2023-01-15T15:53:29.742Z,10.07
2023-01-15T15:56:00.463Z,13.40
2023-01-15T15:58:35.024Z,8.17
2023-01-15T16:01:04.164Z,11.87
2023-01-15T16:03:34.681Z,12.33
2023-01-15T16:06:04.536Z,12.57
2023-01-15T16:08:35.975Z,12.87
2023-01-15T16:11:06.937Z,12.37
2023-01-15T16:13:37.795Z,10.83
2023-01-15T16:16:08.468Z,12.37
2023-01-15T16:18:41.054Z,11.30
2023-01-15T16:21:10.105Z,10.83
2023-01-15T16:23:40.391Z,16.20
2023-01-15T16:26:19.781Z,12.30
2023-01-15T16:28:53.619Z,13.70
2023-01-15T16:31:23.045Z,12.63
2023-01-15T16:33:56.455Z,13.53
2023-01-15T16:36:26.154Z,13.00
2023-01-15T16:38:56.948Z,12.03
2023-01-15T16:41:32.331Z,15.43
2023-01-15T16:44:03.535Z,16.40
2023-01-15T16:46:33.797Z,18.10
2023-01-15T16:49:28.217Z,16.40
2023-01-15T16:51:58.215Z,16.10
2023-01-15T16:54:45.166Z,15.67
2023-01-15T16:57:29.972Z,15.80
2023-01-15T17:00:02.127Z,17.03
2023-01-15T17:02:37.026Z,18.83
2023-01-15T17:05:18.376Z,17.90
2023-01-15T17:07:50.790Z,17.73
2023-01-15T17:10:23.768Z,15.30
2023-01-15T17:12:53.071Z,16.00
2023-01-15T17:15:45.314Z,20.83
2023-01-15T17:18:27.583Z,18.93
2023-01-15T17:20:56.256Z,21.40
2023-01-15T17:23:29.137Z,14.23
2023-01-15T17:25:59.451Z,15.63
2023-01-15T17:28:27.776Z,17.53
2023-01-15T17:31:00.410Z,21.03
2023-01-15T17:33:28.770Z,16.63
2023-01-15T17:36:00.426Z,14.97
2023-01-15T17:38:28.672Z,16.97
2023-01-15T17:41:00.761Z,16.50
2023-01-15T17:43:28.953Z,17.03
2023-01-15T17:45:57.147Z,18.97
2023-01-15T17:48:25.297Z,18.33
2023-01-15T17:50:54.585Z,14.13
2023-01-15T17:53:23.145Z,16.13
2023-01-15T17:56:08.633Z,17.27
2023-01-15T17:58:55.641Z,19.70
2023-01-15T18:01:44.159Z,14.20
2023-01-15T18:04:37.387Z,20.23
2023-01-15T18:07:06.081Z,16.47
2023-01-15T18:09:35.943Z,17.10
2023-01-15T18:12:05.059Z,16.20
2023-01-15T18:14:34.678Z,18.67
2023-01-15T18:17:03.467Z,19.13
2023-01-15T18:19:31.828Z,15.80
2023-01-15T18:22:03.164Z,14.77
2023-01-15T18:24:31.932Z,10.80
2023-01-15T18:27:00.628Z,13.90
2023-01-15T18:29:29.424Z,12.00
2023-01-15T18:32:00.280Z,10.33
2023-01-15T18:34:31.500Z,11.57
2023-01-15T18:37:02.453Z,11.27
2023-01-15T18:39:31.360Z,7.07
2023-01-15T18:42:17.286Z,9.40
2023-01-15T18:45:03.323Z,10.37
2023-01-15T18:47:36.095Z,7.73
2023-01-15T18:50:04.391Z,8.43
2023-01-15T18:52:54.616Z,8.37
2023-01-15T18:55:24.566Z,8.43
2023-01-15T18:57:52.866Z,8.00
2023-01-15T19:00:22.305Z,8.10
2023-01-15T19:02:52.432Z,7.97
2023-01-15T19:05:21.149Z,6.10
2023-01-15T19:07:55.249Z,5.73
2023-01-15T19:10:27.873Z,5.03
2023-01-15T19:12:56.066Z,6.20
2023-01-15T19:15:41.947Z,7.13
2023-01-15T19:18:30.304Z,10.17
2023-01-15T19:20:59.377Z,7.30
2023-01-15T19:23:30.989Z,7.37
2023-01-15T19:26:01.223Z,8.17
2023-01-15T19:28:31.136Z,10.97
2023-01-15T19:31:16.597Z,11.80
2023-01-15T19:33:46.751Z,11.37
2023-01-15T19:36:15.171Z,10.77
2023-01-15T19:38:43.458Z,11.97
2023-01-15T19:41:30.369Z,14.60
2023-01-15T19:44:16.151Z,11.53
2023-01-15T19:47:02.124Z,12.93
2023-01-15T19:49:53.811Z,11.77
2023-01-15T19:52:37.889Z,9.03
2023-01-15T19:55:10.908Z,16.70
2023-01-15T19:57:39.534Z,16.00
2023-01-15T20:00:12.634Z,20.57
2023-01-15T20:02:41.884Z,13.23
2023-01-15T20:05:13.325Z,19.10
2023-01-15T20:07:42.146Z,16.27
2023-01-15T20:10:12.094Z,17.37
2023-01-15T20:12:57.863Z,12.37
2023-01-15T20:15:26.881Z,14.07
2023-01-15T20:17:55.294Z,17.10
2023-01-15T20:20:25.356Z,14.13
2023-01-15T20:22:56.166Z,14.33
2023-01-15T20:25:24.772Z,11.17
2023-01-15T20:27:53.035Z,10.07
2023-01-15T20:30:22.948Z,9.97
2023-01-15T20:32:52.533Z,11.23
2023-01-15T20:35:26.531Z,10.30
2023-01-15T20:37:56.243Z,11.23
2023-01-15T20:40:25.595Z,12.27
2023-01-15T20:43:12.102Z,11.67
2023-01-15T20:45:40.861Z,12.23
2023-01-15T20:48:32.920Z,13.10
2023-01-15T20:51:12.466Z,11.83
2023-01-15T20:53:42.384Z,10.57
2023-01-15T20:56:14.569Z,12.87
2023-01-15T20:58:42.848Z,10.23
2023-01-15T21:01:11.227Z,8.53
2023-01-15T21:03:40.426Z,11.87
2023-01-15T21:06:09.359Z,8.53
2023-01-15T21:08:37.825Z,9.77
2023-01-15T21:11:07.495Z,7.37
2023-01-15T21:13:36.508Z,7.90
2023-01-15T21:16:06.312Z,8.37
2023-01-15T21:18:36.130Z,9.80
2023-01-15T21:21:09.562Z,8.40
2023-01-15T21:23:37.711Z,7.40
2023-01-15T21:26:07.673Z,6.60
2023-01-15T21:28:35.836Z,8.17
2023-01-15T21:31:08.140Z,9.43
2023-01-15T21:33:36.497Z,8.70
2023-01-15T21:36:07.569Z,10.40
2023-01-15T21:38:35.751Z,8.13
2023-01-15T21:41:10.012Z,9.90
2023-01-15T21:43:55.686Z,9.00
2023-01-15T21:46:27.511Z,7.40
2023-01-15T21:48:56.044Z,7.30
2023-01-15T21:51:24.229Z,7.40
2023-01-15T21:53:52.403Z,10.73
2023-01-15T21:56:22.084Z,10.60
2023-01-15T21:58:50.221Z,8.13
2023-01-15T22:01:20.918Z,9.53
2023-01-15T22:03:49.194Z,11.87
2023-01-15T22:06:17.396Z,8.60
2023-01-15T22:08:45.544Z,8.63
2023-01-15T22:11:13.716Z,8.37
2023-01-15T22:13:43.375Z,11.53
2023-01-15T22:16:11.531Z,7.87
2023-01-15T22:18:40.974Z,8.17
2023-01-15T22:21:14.870Z,8.37
2023-01-15T22:23:43.666Z,10.30
2023-01-15T22:26:18.374Z,9.00
2023-01-15T22:28:48.188Z,8.63
2023-01-15T22:31:17.887Z,9.27
2023-01-15T22:33:46.223Z,9.80
2023-01-15T22:36:16.940Z,7.73
2023-01-15T22:38:45.265Z,10.40
2023-01-15T22:41:13.761Z,9.83
2023-01-15T22:43:41.881Z,9.57
2023-01-15T22:46:13.131Z,10.10
2023-01-15T22:48:41.514Z,8.10
2023-01-15T22:51:09.640Z,9.60
2023-01-15T22:53:37.817Z,7.80
2023-01-15T22:56:06.833Z,6.70
2023-01-15T22:58:35.009Z,11.77
2023-01-15T23:01:03.281Z,9.50
2023-01-15T23:03:35.496Z,7.57
2023-01-15T23:06:04.828Z,7.93
2023-01-15T23:08:35.323Z,8.43
2023-01-15T23:11:03.832Z,6.60
2023-01-15T23:13:33.412Z,8.90
2023-01-15T23:16:02.322Z,7.60
2023-01-15T23:18:32.568Z,8.17
2023-01-15T23:21:03.699Z,7.60
2023-01-15T23:23:32.151Z,6.63
2023-01-15T23:26:02.647Z,6.27
2023-01-15T23:28:31.139Z,6.37
2023-01-15T23:30:59.348Z,7.23
2023-01-15T23:33:27.677Z,14.57
2023-01-15T23:35:58.695Z,6.53
2023-01-15T23:38:27.173Z,6.70
2023-01-15T23:40:55.678Z,7.57
2023-01-15T23:43:41.347Z,7.40
2023-01-15T23:46:32.509Z,7.70
2023-01-15T23:49:00.819Z,6.53
2023-01-15T23:51:30.951Z,8.70
2023-01-15T23:53:59.428Z,8.63
2023-01-15T23:56:27.635Z,6.83
2023-01-15T23:58:56.038Z,7.00
